sensor_id;sensor_type;location;lat;lon;timestamp;P1;durP1;ratioP1;P2;durP2;ratioP2
35606;SDS011;21729;58.392;15.656;2022-09-16T00:01:22;2.20;;;0.30;;
35606;SDS011;21729;58.392;15.656;2022-09-16T00:03:52;1.80;;;0.40;;
35606;SDS011;21729;58.392;15.656;2022-09-16T00:06:22;0.90;;;0.30;;
35606;SDS011;21729;58.392;15.656;2022-09-16T00:08:51;0.22;;;0.22;;
35606;SDS011;21729;58.392;15.656;2022-09-16T00:11:20;2.00;;;0.30;;
35606;SDS011;21729;58.392;15.656;2022-09-16T00:13:47;0.38;;;0.22;;
35606;SDS011;21729;58.392;15.656;2022-09-16T00:16:16;1.20;;;0.30;;
35606;SDS011;21729;58.392;15.656;2022-09-16T00:18:45;0.70;;;0.20;;
35606;SDS011;21729;58.392;15.656;2022-09-16T00:21:12;0.20;;;0.20;;
35606;SDS011;21729;58.392;15.656;2022-09-16T00:23:41;0.70;;;0.30;;
35606;SDS011;21729;58.392;15.656;2022-09-16T00:26:08;0.20;;;0.20;;
35606;SDS011;21729;58.392;15.656;2022-09-16T00:28:35;0.95;;;0.30;;
35606;SDS011;21729;58.392;15.656;2022-09-16T00:31:02;0.60;;;0.30;;
35606;SDS011;21729;58.392;15.656;2022-09-16T00:33:29;0.40;;;0.30;;
35606;SDS011;21729;58.392;15.656;2022-09-16T00:36:04;0.50;;;0.20;;
35606;SDS011;21729;58.392;15.656;2022-09-16T00:38:32;0.70;;;0.32;;
35606;SDS011;21729;58.392;15.656;2022-09-16T00:41:01;0.30;;;0.27;;
35606;SDS011;21729;58.392;15.656;2022-09-16T00:43:44;0.40;;;0.28;;
35606;SDS011;21729;58.392;15.656;2022-09-16T00:46:17;0.30;;;0.20;;
35606;SDS011;21729;58.392;15.656;2022-09-16T00:48:48;2.10;;;0.40;;
35606;SDS011;21729;58.392;15.656;2022-09-16T00:51:15;1.27;;;0.20;;
35606;SDS011;21729;58.392;15.656;2022-09-16T00:53:46;1.40;;;0.30;;
35606;SDS011;21729;58.392;15.656;2022-09-16T00:56:22;0.47;;;0.20;;
35606;SDS011;21729;58.392;15.656;2022-09-16T00:58:54;0.80;;;0.20;;
35606;SDS011;21729;58.392;15.656;2022-09-16T01:01:26;0.55;;;0.17;;
35606;SDS011;21729;58.392;15.656;2022-09-16T01:03:54;0.30;;;0.30;;
35606;SDS011;21729;58.392;15.656;2022-09-16T01:06:26;0.63;;;0.20;;
35606;SDS011;21729;58.392;15.656;2022-09-16T01:08:54;0.85;;;0.22;;
35606;SDS011;21729;58.392;15.656;2022-09-16T01:11:24;1.10;;;0.30;;
35606;SDS011;21729;58.392;15.656;2022-09-16T01:13:51;0.57;;;0.20;;
35606;SDS011;21729;58.392;15.656;2022-09-16T01:16:20;1.17;;;0.20;;
35606;SDS011;21729;58.392;15.656;2022-09-16T01:18:53;0.88;;;0.30;;
35606;SDS011;21729;58.392;15.656;2022-09-16T01:21:37;0.20;;;0.20;;
35606;SDS011;21729;58.392;15.656;2022-09-16T01:24:20;0.20;;;0.20;;
35606;SDS011;21729;58.392;15.656;2022-09-16T01:30:12;0.20;;;0.20;;
35606;SDS011;21729;58.392;15.656;2022-09-16T01:33:11;1.03;;;0.23;;
35606;SDS011;21729;58.392;15.656;2022-09-16T01:35:52;0.60;;;0.10;;
35606;SDS011;21729;58.392;15.656;2022-09-16T01:38:39;0.10;;;0.10;;
35606;SDS011;21729;58.392;15.656;2022-09-16T01:41:18;0.20;;;0.10;;
35606;SDS011;21729;58.392;15.656;2022-09-16T01:43:53;0.10;;;0.10;;
35606;SDS011;21729;58.392;15.656;2022-09-16T01:46:28;0.20;;;0.10;;
35606;SDS011;21729;58.392;15.656;2022-09-16T01:49:03;0.20;;;0.10;;
35606;SDS011;21729;58.392;15.656;2022-09-16T01:51:40;0.10;;;0.10;;
35606;SDS011;21729;58.392;15.656;2022-09-16T01:54:15;0.90;;;0.20;;
35606;SDS011;21729;58.392;15.656;2022-09-16T01:56:49;0.60;;;0.20;;
35606;SDS011;21729;58.392;15.656;2022-09-16T01:59:22;0.80;;;0.10;;
35606;SDS011;21729;58.392;15.656;2022-09-16T02:01:58;0.20;;;0.10;;
35606;SDS011;21729;58.392;15.656;2022-09-16T02:04:30;0.20;;;0.13;;
35606;SDS011;21729;58.392;15.656;2022-09-16T02:07:02;0.20;;;0.20;;
35606;SDS011;21729;58.392;15.656;2022-09-16T02:09:32;0.10;;;0.10;;
35606;SDS011;21729;58.392;15.656;2022-09-16T02:12:03;0.40;;;0.10;;
35606;SDS011;21729;58.392;15.656;2022-09-16T02:14:32;0.30;;;0.10;;
35606;SDS011;21729;58.392;15.656;2022-09-16T02:17:05;0.05;;;0.05;;
35606;SDS011;21729;58.392;15.656;2022-09-16T02:19:38;0.50;;;0.10;;
35606;SDS011;21729;58.392;15.656;2022-09-16T02:22:11;0.63;;;0.10;;
35606;SDS011;21729;58.392;15.656;2022-09-16T02:24:40;0.10;;;0.10;;
35606;SDS011;21729;58.392;15.656;2022-09-16T02:27:11;0.70;;;0.10;;
35606;SDS011;21729;58.392;15.656;2022-09-16T02:29:42;1.10;;;0.20;;
35606;SDS011;21729;58.392;15.656;2022-09-16T02:32:14;0.75;;;0.10;;
35606;SDS011;21729;58.392;15.656;2022-09-16T02:34:45;0.13;;;0.10;;
35606;SDS011;21729;58.392;15.656;2022-09-16T02:37:16;0.35;;;0.10;;
35606;SDS011;21729;58.392;15.656;2022-09-16T02:39:46;0.30;;;0.20;;
35606;SDS011;21729;58.392;15.656;2022-09-16T02:42:15;0.23;;;0.10;;
35606;SDS011;21729;58.392;15.656;2022-09-16T02:44:42;0.32;;;0.15;;
35606;SDS011;21729;58.392;15.656;2022-09-16T02:47:11;0.30;;;0.20;;
35606;SDS011;21729;58.392;15.656;2022-09-16T02:49:48;1.80;;;0.20;;
35606;SDS011;21729;58.392;15.656;2022-09-16T02:52:23;0.40;;;0.20;;
35606;SDS011;21729;58.392;15.656;2022-09-16T02:55:00;0.95;;;0.20;;
35606;SDS011;21729;58.392;15.656;2022-09-16T02:57:31;0.22;;;0.10;;
35606;SDS011;21729;58.392;15.656;2022-09-16T02:59:58;0.50;;;0.20;;
35606;SDS011;21729;58.392;15.656;2022-09-16T03:02:26;0.10;;;0.10;;
35606;SDS011;21729;58.392;15.656;2022-09-16T03:04:55;0.75;;;0.10;;
35606;SDS011;21729;58.392;15.656;2022-09-16T03:07:22;0.30;;;0.20;;
35606;SDS011;21729;58.392;15.656;2022-09-16T03:09:49;0.10;;;0.10;;
35606;SDS011;21729;58.392;15.656;2022-09-16T03:12:24;0.50;;;0.07;;
35606;SDS011;21729;58.392;15.656;2022-09-16T03:15:08;0.60;;;0.13;;
35606;SDS011;21729;58.392;15.656;2022-09-16T03:18:03;1.05;;;0.20;;
35606;SDS011;21729;58.392;15.656;2022-09-16T03:20:45;2.30;;;0.20;;
35606;SDS011;21729;58.392;15.656;2022-09-16T03:23:21;0.00;;;0.00;;
35606;SDS011;21729;58.392;15.656;2022-09-16T03:25:55;0.45;;;0.20;;
35606;SDS011;21729;58.392;15.656;2022-09-16T03:28:28;1.83;;;0.20;;
35606;SDS011;21729;58.392;15.656;2022-09-16T03:31:03;0.20;;;0.20;;
35606;SDS011;21729;58.392;15.656;2022-09-16T03:33:34;0.50;;;0.10;;
35606;SDS011;21729;58.392;15.656;2022-09-16T03:36:08;0.60;;;0.20;;
35606;SDS011;21729;58.392;15.656;2022-09-16T03:38:40;1.00;;;0.22;;
35606;SDS011;21729;58.392;15.656;2022-09-16T03:41:08;1.10;;;0.10;;
35606;SDS011;21729;58.392;15.656;2022-09-16T03:43:36;0.47;;;0.10;;
35606;SDS011;21729;58.392;15.656;2022-09-16T03:46:04;0.10;;;0.10;;
35606;SDS011;21729;58.392;15.656;2022-09-16T03:48:35;0.43;;;0.20;;
35606;SDS011;21729;58.392;15.656;2022-09-16T03:51:02;0.30;;;0.20;;
35606;SDS011;21729;58.392;15.656;2022-09-16T03:53:30;0.20;;;0.10;;
35606;SDS011;21729;58.392;15.656;2022-09-16T03:55:58;1.20;;;0.20;;
35606;SDS011;21729;58.392;15.656;2022-09-16T03:58:25;0.60;;;0.10;;
35606;SDS011;21729;58.392;15.656;2022-09-16T04:00:52;0.60;;;0.10;;
35606;SDS011;21729;58.392;15.656;2022-09-16T04:03:19;0.63;;;0.10;;
35606;SDS011;21729;58.392;15.656;2022-09-16T04:05:51;0.17;;;0.10;;
35606;SDS011;21729;58.392;15.656;2022-09-16T04:08:18;0.10;;;0.10;;
35606;SDS011;21729;58.392;15.656;2022-09-16T04:10:53;0.50;;;0.25;;
35606;SDS011;21729;58.392;15.656;2022-09-16T04:13:21;1.20;;;0.50;;
35606;SDS011;21729;58.392;15.656;2022-09-16T04:15:48;0.40;;;0.20;;
35606;SDS011;21729;58.392;15.656;2022-09-16T04:18:16;0.25;;;0.10;;
35606;SDS011;21729;58.392;15.656;2022-09-16T04:20:43;0.30;;;0.20;;
35606;SDS011;21729;58.392;15.656;2022-09-16T04:23:10;2.47;;;0.30;;
35606;SDS011;21729;58.392;15.656;2022-09-16T04:25:38;0.40;;;0.20;;
35606;SDS011;21729;58.392;15.656;2022-09-16T04:28:06;1.10;;;0.32;;
35606;SDS011;21729;58.392;15.656;2022-09-16T04:30:33;0.30;;;0.20;;
35606;SDS011;21729;58.392;15.656;2022-09-16T04:33:02;0.70;;;0.33;;
35606;SDS011;21729;58.392;15.656;2022-09-16T04:35:29;2.67;;;0.32;;
35606;SDS011;21729;58.392;15.656;2022-09-16T04:37:57;0.28;;;0.28;;
35606;SDS011;21729;58.392;15.656;2022-09-16T04:40:24;0.27;;;0.20;;
35606;SDS011;21729;58.392;15.656;2022-09-16T04:42:51;0.20;;;0.20;;
35606;SDS011;21729;58.392;15.656;2022-09-16T04:45:19;0.47;;;0.30;;
35606;SDS011;21729;58.392;15.656;2022-09-16T04:47:46;1.63;;;0.40;;
35606;SDS011;21729;58.392;15.656;2022-09-16T04:50:13;1.08;;;0.30;;
35606;SDS011;21729;58.392;15.656;2022-09-16T04:52:40;1.35;;;0.30;;
35606;SDS011;21729;58.392;15.656;2022-09-16T04:55:08;0.60;;;0.20;;
35606;SDS011;21729;58.392;15.656;2022-09-16T04:57:35;1.20;;;0.30;;
35606;SDS011;21729;58.392;15.656;2022-09-16T05:00:02;0.30;;;0.30;;
35606;SDS011;21729;58.392;15.656;2022-09-16T05:02:31;0.90;;;0.50;;
35606;SDS011;21729;58.392;15.656;2022-09-16T05:04:58;0.70;;;0.30;;
35606;SDS011;21729;58.392;15.656;2022-09-16T05:07:26;0.50;;;0.20;;
35606;SDS011;21729;58.392;15.656;2022-09-16T05:09:53;0.50;;;0.20;;
35606;SDS011;21729;58.392;15.656;2022-09-16T05:12:20;0.20;;;0.20;;
35606;SDS011;21729;58.392;15.656;2022-09-16T05:14:48;0.57;;;0.13;;
35606;SDS011;21729;58.392;15.656;2022-09-16T05:17:15;0.10;;;0.10;;
35606;SDS011;21729;58.392;15.656;2022-09-16T05:19:43;1.60;;;0.43;;
35606;SDS011;21729;58.392;15.656;2022-09-16T05:22:10;0.27;;;0.20;;
35606;SDS011;21729;58.392;15.656;2022-09-16T05:24:37;0.20;;;0.10;;
35606;SDS011;21729;58.392;15.656;2022-09-16T05:27:04;1.40;;;0.30;;
35606;SDS011;21729;58.392;15.656;2022-09-16T05:29:31;0.52;;;0.10;;
35606;SDS011;21729;58.392;15.656;2022-09-16T05:31:59;0.20;;;0.20;;
35606;SDS011;21729;58.392;15.656;2022-09-16T05:34:26;1.50;;;0.20;;
35606;SDS011;21729;58.392;15.656;2022-09-16T05:36:55;0.90;;;0.30;;
35606;SDS011;21729;58.392;15.656;2022-09-16T05:39:22;0.20;;;0.20;;
35606;SDS011;21729;58.392;15.656;2022-09-16T05:41:51;0.20;;;0.20;;
35606;SDS011;21729;58.392;15.656;2022-09-16T05:44:19;0.30;;;0.10;;
35606;SDS011;21729;58.392;15.656;2022-09-16T05:46:46;1.25;;;0.20;;
35606;SDS011;21729;58.392;15.656;2022-09-16T05:49:14;0.20;;;0.20;;
35606;SDS011;21729;58.392;15.656;2022-09-16T05:51:44;0.20;;;0.20;;
35606;SDS011;21729;58.392;15.656;2022-09-16T05:54:14;0.85;;;0.20;;
35606;SDS011;21729;58.392;15.656;2022-09-16T05:56:42;0.32;;;0.30;;
35606;SDS011;21729;58.392;15.656;2022-09-16T05:59:10;0.20;;;0.20;;
35606;SDS011;21729;58.392;15.656;2022-09-16T06:01:38;0.95;;;0.20;;
35606;SDS011;21729;58.392;15.656;2022-09-16T06:04:06;2.15;;;0.35;;
35606;SDS011;21729;58.392;15.656;2022-09-16T06:06:35;0.30;;;0.30;;
35606;SDS011;21729;58.392;15.656;2022-09-16T06:09:04;0.30;;;0.30;;
35606;SDS011;21729;58.392;15.656;2022-09-16T06:11:40;0.40;;;0.20;;
35606;SDS011;21729;58.392;15.656;2022-09-16T06:14:09;0.20;;;0.20;;
35606;SDS011;21729;58.392;15.656;2022-09-16T06:16:37;1.20;;;0.20;;
35606;SDS011;21729;58.392;15.656;2022-09-16T06:19:05;0.50;;;0.20;;
35606;SDS011;21729;58.392;15.656;2022-09-16T06:21:35;0.80;;;0.20;;
35606;SDS011;21729;58.392;15.656;2022-09-16T06:24:03;0.32;;;0.20;;
35606;SDS011;21729;58.392;15.656;2022-09-16T06:26:32;0.30;;;0.30;;
35606;SDS011;21729;58.392;15.656;2022-09-16T06:29:01;1.05;;;0.30;;
35606;SDS011;21729;58.392;15.656;2022-09-16T06:31:29;0.60;;;0.40;;
35606;SDS011;21729;58.392;15.656;2022-09-16T06:33:57;0.77;;;0.40;;
35606;SDS011;21729;58.392;15.656;2022-09-16T06:36:24;0.65;;;0.30;;
35606;SDS011;21729;58.392;15.656;2022-09-16T06:38:53;0.30;;;0.30;;
35606;SDS011;21729;58.392;15.656;2022-09-16T06:41:20;0.50;;;0.40;;
35606;SDS011;21729;58.392;15.656;2022-09-16T06:43:49;0.80;;;0.45;;
35606;SDS011;21729;58.392;15.656;2022-09-16T06:46:18;1.10;;;0.40;;
35606;SDS011;21729;58.392;15.656;2022-09-16T06:48:47;0.40;;;0.40;;
35606;SDS011;21729;58.392;15.656;2022-09-16T06:51:16;0.85;;;0.40;;
35606;SDS011;21729;58.392;15.656;2022-09-16T06:53:44;0.68;;;0.30;;
35606;SDS011;21729;58.392;15.656;2022-09-16T06:56:12;0.60;;;0.30;;
35606;SDS011;21729;58.392;15.656;2022-09-16T06:58:41;1.08;;;0.35;;
35606;SDS011;21729;58.392;15.656;2022-09-16T07:01:09;0.55;;;0.20;;
35606;SDS011;21729;58.392;15.656;2022-09-16T07:03:40;0.30;;;0.30;;
35606;SDS011;21729;58.392;15.656;2022-09-16T07:06:08;0.30;;;0.30;;
35606;SDS011;21729;58.392;15.656;2022-09-16T07:08:37;0.45;;;0.30;;
35606;SDS011;21729;58.392;15.656;2022-09-16T07:11:05;0.80;;;0.30;;
35606;SDS011;21729;58.392;15.656;2022-09-16T07:13:34;0.40;;;0.40;;
35606;SDS011;21729;58.392;15.656;2022-09-16T07:16:01;0.40;;;0.30;;
35606;SDS011;21729;58.392;15.656;2022-09-16T07:18:30;0.60;;;0.30;;
35606;SDS011;21729;58.392;15.656;2022-09-16T07:21:02;0.40;;;0.40;;
35606;SDS011;21729;58.392;15.656;2022-09-16T07:23:29;0.30;;;0.30;;
35606;SDS011;21729;58.392;15.656;2022-09-16T07:26:01;1.00;;;0.30;;
35606;SDS011;21729;58.392;15.656;2022-09-16T07:28:29;0.40;;;0.40;;
35606;SDS011;21729;58.392;15.656;2022-09-16T07:30:59;0.50;;;0.40;;
35606;SDS011;21729;58.392;15.656;2022-09-16T07:33:27;1.48;;;0.30;;
35606;SDS011;21729;58.392;15.656;2022-09-16T07:35:59;0.70;;;0.65;;
35606;SDS011;21729;58.392;15.656;2022-09-16T07:38:28;0.40;;;0.40;;
35606;SDS011;21729;58.392;15.656;2022-09-16T07:40:55;0.30;;;0.30;;
35606;SDS011;21729;58.392;15.656;2022-09-16T07:43:28;0.50;;;0.32;;
35606;SDS011;21729;58.392;15.656;2022-09-16T07:45:56;0.85;;;0.40;;
35606;SDS011;21729;58.392;15.656;2022-09-16T07:48:23;0.80;;;0.50;;
35606;SDS011;21729;58.392;15.656;2022-09-16T07:50:54;0.40;;;0.40;;
35606;SDS011;21729;58.392;15.656;2022-09-16T07:53:22;0.70;;;0.30;;
35606;SDS011;21729;58.392;15.656;2022-09-16T07:55:51;0.55;;;0.43;;
35606;SDS011;21729;58.392;15.656;2022-09-16T07:58:18;1.75;;;0.60;;
35606;SDS011;21729;58.392;15.656;2022-09-16T08:00:46;0.40;;;0.40;;
35606;SDS011;21729;58.392;15.656;2022-09-16T08:03:15;0.30;;;0.30;;
35606;SDS011;21729;58.392;15.656;2022-09-16T08:05:42;1.10;;;0.40;;
35606;SDS011;21729;58.392;15.656;2022-09-16T08:08:09;0.98;;;0.40;;
35606;SDS011;21729;58.392;15.656;2022-09-16T08:10:37;1.70;;;0.40;;
35606;SDS011;21729;58.392;15.656;2022-09-16T08:13:05;1.00;;;0.50;;
35606;SDS011;21729;58.392;15.656;2022-09-16T08:15:33;0.40;;;0.40;;
35606;SDS011;21729;58.392;15.656;2022-09-16T08:18:00;0.90;;;0.40;;
35606;SDS011;21729;58.392;15.656;2022-09-16T08:20:27;0.43;;;0.40;;
35606;SDS011;21729;58.392;15.656;2022-09-16T08:22:54;0.60;;;0.50;;
35606;SDS011;21729;58.392;15.656;2022-09-16T08:25:21;0.47;;;0.43;;
35606;SDS011;21729;58.392;15.656;2022-09-16T08:27:49;0.82;;;0.50;;
35606;SDS011;21729;58.392;15.656;2022-09-16T08:30:17;0.63;;;0.50;;
35606;SDS011;21729;58.392;15.656;2022-09-16T08:32:44;0.40;;;0.40;;
35606;SDS011;21729;58.392;15.656;2022-09-16T08:35:12;1.52;;;0.38;;
35606;SDS011;21729;58.392;15.656;2022-09-16T08:37:39;0.40;;;0.40;;
35606;SDS011;21729;58.392;15.656;2022-09-16T08:40:06;0.50;;;0.50;;
35606;SDS011;21729;58.392;15.656;2022-09-16T08:42:46;0.60;;;0.40;;
35606;SDS011;21729;58.392;15.656;2022-09-16T08:45:26;0.50;;;0.50;;
35606;SDS011;21729;58.392;15.656;2022-09-16T08:48:09;1.10;;;0.50;;
35606;SDS011;21729;58.392;15.656;2022-09-16T08:50:48;0.77;;;0.40;;
35606;SDS011;21729;58.392;15.656;2022-09-16T08:53:18;3.17;;;0.45;;
35606;SDS011;21729;58.392;15.656;2022-09-16T08:55:51;1.40;;;0.50;;
35606;SDS011;21729;58.392;15.656;2022-09-16T08:58:19;0.50;;;0.50;;
35606;SDS011;21729;58.392;15.656;2022-09-16T09:00:51;0.50;;;0.50;;
35606;SDS011;21729;58.392;15.656;2022-09-16T09:03:24;1.30;;;0.60;;
35606;SDS011;21729;58.392;15.656;2022-09-16T09:05:58;1.65;;;0.50;;
35606;SDS011;21729;58.392;15.656;2022-09-16T09:08:32;1.45;;;0.60;;
35606;SDS011;21729;58.392;15.656;2022-09-16T09:11:09;0.80;;;0.57;;
35606;SDS011;21729;58.392;15.656;2022-09-16T09:13:44;0.60;;;0.57;;
35606;SDS011;21729;58.392;15.656;2022-09-16T09:16:27;0.50;;;0.50;;
35606;SDS011;21729;58.392;15.656;2022-09-16T09:19:06;0.70;;;0.60;;
35606;SDS011;21729;58.392;15.656;2022-09-16T09:21:47;1.23;;;0.60;;
35606;SDS011;21729;58.392;15.656;2022-09-16T09:24:27;0.70;;;0.70;;
35606;SDS011;21729;58.392;15.656;2022-09-16T09:27:09;0.35;;;0.30;;
35606;SDS011;21729;58.392;15.656;2022-09-16T09:29:53;1.70;;;0.40;;
35606;SDS011;21729;58.392;15.656;2022-09-16T09:32:31;1.13;;;0.40;;
35606;SDS011;21729;58.392;15.656;2022-09-16T09:35:17;0.50;;;0.50;;
35606;SDS011;21729;58.392;15.656;2022-09-16T09:38:09;0.90;;;0.50;;
35606;SDS011;21729;58.392;15.656;2022-09-16T09:40:53;0.47;;;0.47;;
35606;SDS011;21729;58.392;15.656;2022-09-16T09:43:27;0.32;;;0.32;;
35606;SDS011;21729;58.392;15.656;2022-09-16T09:46:01;0.50;;;0.50;;
35606;SDS011;21729;58.392;15.656;2022-09-16T09:48:32;0.97;;;0.43;;
35606;SDS011;21729;58.392;15.656;2022-09-16T09:51:05;0.95;;;0.50;;
35606;SDS011;21729;58.392;15.656;2022-09-16T09:53:38;0.77;;;0.70;;
35606;SDS011;21729;58.392;15.656;2022-09-16T09:56:13;1.00;;;0.50;;
35606;SDS011;21729;58.392;15.656;2022-09-16T09:58:45;0.43;;;0.40;;
35606;SDS011;21729;58.392;15.656;2022-09-16T10:01:19;0.40;;;0.40;;
35606;SDS011;21729;58.392;15.656;2022-09-16T10:03:48;2.25;;;0.50;;
35606;SDS011;21729;58.392;15.656;2022-09-16T10:06:18;1.65;;;0.50;;
35606;SDS011;21729;58.392;15.656;2022-09-16T10:08:51;0.50;;;0.40;;
35606;SDS011;21729;58.392;15.656;2022-09-16T10:11:20;0.47;;;0.47;;
35606;SDS011;21729;58.392;15.656;2022-09-16T10:13:50;1.60;;;0.40;;
35606;SDS011;21729;58.392;15.656;2022-09-16T10:16:18;0.47;;;0.30;;
35606;SDS011;21729;58.392;15.656;2022-09-16T10:18:55;0.30;;;0.20;;
35606;SDS011;21729;58.392;15.656;2022-09-16T10:21:36;0.35;;;0.35;;
35606;SDS011;21729;58.392;15.656;2022-09-16T10:24:23;1.58;;;0.30;;
35606;SDS011;21729;58.392;15.656;2022-09-16T10:26:57;1.13;;;0.32;;
35606;SDS011;21729;58.392;15.656;2022-09-16T10:29:25;1.38;;;0.38;;
35606;SDS011;21729;58.392;15.656;2022-09-16T10:31:52;0.30;;;0.30;;
35606;SDS011;21729;58.392;15.656;2022-09-16T10:34:25;0.30;;;0.30;;
35606;SDS011;21729;58.392;15.656;2022-09-16T10:37:01;1.60;;;0.30;;
35606;SDS011;21729;58.392;15.656;2022-09-16T10:39:30;0.40;;;0.20;;
35606;SDS011;21729;58.392;15.656;2022-09-16T10:41:58;0.30;;;0.30;;
35606;SDS011;21729;58.392;15.656;2022-09-16T10:44:27;0.70;;;0.30;;
35606;SDS011;21729;58.392;15.656;2022-09-16T10:46:57;0.30;;;0.30;;
35606;SDS011;21729;58.392;15.656;2022-09-16T10:49:30;0.30;;;0.30;;
35606;SDS011;21729;58.392;15.656;2022-09-16T10:52:11;0.60;;;0.10;;
35606;SDS011;21729;58.392;15.656;2022-09-16T10:54:42;0.30;;;0.30;;
35606;SDS011;21729;58.392;15.656;2022-09-16T10:59:57;0.20;;;0.20;;
35606;SDS011;21729;58.392;15.656;2022-09-16T11:02:30;0.70;;;0.17;;
35606;SDS011;21729;58.392;15.656;2022-09-16T11:05:14;0.82;;;0.20;;
35606;SDS011;21729;58.392;15.656;2022-09-16T11:07:52;0.30;;;0.20;;
35606;SDS011;21729;58.392;15.656;2022-09-16T11:10:28;0.40;;;0.35;;
35606;SDS011;21729;58.392;15.656;2022-09-16T11:13:06;1.40;;;0.22;;
35606;SDS011;21729;58.392;15.656;2022-09-16T11:15:49;0.20;;;0.20;;
35606;SDS011;21729;58.392;15.656;2022-09-16T11:18:29;0.30;;;0.30;;
35606;SDS011;21729;58.392;15.656;2022-09-16T11:24:07;0.15;;;0.15;;
35606;SDS011;21729;58.392;15.656;2022-09-16T11:26:54;0.70;;;0.20;;
35606;SDS011;21729;58.392;15.656;2022-09-16T11:29:38;0.28;;;0.20;;
35606;SDS011;21729;58.392;15.656;2022-09-16T11:32:16;0.65;;;0.20;;
35606;SDS011;21729;58.392;15.656;2022-09-16T11:34:59;0.20;;;0.20;;
35606;SDS011;21729;58.392;15.656;2022-09-16T11:37:44;0.20;;;0.20;;
35606;SDS011;21729;58.392;15.656;2022-09-16T11:40:18;0.70;;;0.20;;
35606;SDS011;21729;58.392;15.656;2022-09-16T11:42:55;0.65;;;0.30;;
35606;SDS011;21729;58.392;15.656;2022-09-16T11:45:35;0.10;;;0.10;;
35606;SDS011;21729;58.392;15.656;2022-09-16T11:48:17;0.20;;;0.20;;
35606;SDS011;21729;58.392;15.656;2022-09-16T11:51:03;0.20;;;0.20;;
35606;SDS011;21729;58.392;15.656;2022-09-16T11:53:44;0.60;;;0.30;;
35606;SDS011;21729;58.392;15.656;2022-09-16T11:56:30;0.20;;;0.20;;
35606;SDS011;21729;58.392;15.656;2022-09-16T11:59:04;0.32;;;0.30;;
35606;SDS011;21729;58.392;15.656;2022-09-16T12:01:40;2.80;;;0.40;;
35606;SDS011;21729;58.392;15.656;2022-09-16T12:04:11;1.80;;;0.40;;
35606;SDS011;21729;58.392;15.656;2022-09-16T12:06:49;0.98;;;0.35;;
35606;SDS011;21729;58.392;15.656;2022-09-16T12:09:25;0.90;;;0.28;;
35606;SDS011;21729;58.392;15.656;2022-09-16T12:12:02;0.68;;;0.22;;
35606;SDS011;21729;58.392;15.656;2022-09-16T12:14:36;0.15;;;0.15;;
35606;SDS011;21729;58.392;15.656;2022-09-16T12:17:07;0.70;;;0.22;;
35606;SDS011;21729;58.392;15.656;2022-09-16T12:19:41;0.22;;;0.20;;
35606;SDS011;21729;58.392;15.656;2022-09-16T12:22:14;0.20;;;0.20;;
35606;SDS011;21729;58.392;15.656;2022-09-16T12:24:47;0.40;;;0.20;;
35606;SDS011;21729;58.392;15.656;2022-09-16T12:27:25;0.20;;;0.20;;
35606;SDS011;21729;58.392;15.656;2022-09-16T12:30:00;1.20;;;0.30;;
35606;SDS011;21729;58.392;15.656;2022-09-16T12:32:32;0.88;;;0.20;;
35606;SDS011;21729;58.392;15.656;2022-09-16T12:35:03;0.20;;;0.20;;
35606;SDS011;21729;58.392;15.656;2022-09-16T12:37:38;0.10;;;0.10;;
35606;SDS011;21729;58.392;15.656;2022-09-16T12:40:13;0.20;;;0.20;;
35606;SDS011;21729;58.392;15.656;2022-09-16T12:45:50;0.20;;;0.20;;
35606;SDS011;21729;58.392;15.656;2022-09-16T12:48:33;0.40;;;0.30;;
35606;SDS011;21729;58.392;15.656;2022-09-16T12:51:20;0.17;;;0.17;;
35606;SDS011;21729;58.392;15.656;2022-09-16T12:57:06;0.43;;;0.20;;
35606;SDS011;21729;58.392;15.656;2022-09-16T12:59:50;0.10;;;0.10;;
35606;SDS011;21729;58.392;15.656;2022-09-16T13:02:32;0.10;;;0.10;;
35606;SDS011;21729;58.392;15.656;2022-09-16T13:05:08;0.20;;;0.20;;
35606;SDS011;21729;58.392;15.656;2022-09-16T13:07:38;0.20;;;0.20;;
35606;SDS011;21729;58.392;15.656;2022-09-16T13:10:07;1.00;;;0.30;;
35606;SDS011;21729;58.392;15.656;2022-09-16T13:12:47;0.10;;;0.10;;
35606;SDS011;21729;58.392;15.656;2022-09-16T13:15:22;0.40;;;0.20;;
35606;SDS011;21729;58.392;15.656;2022-09-16T13:17:51;0.20;;;0.20;;
35606;SDS011;21729;58.392;15.656;2022-09-16T13:20:20;0.30;;;0.30;;
35606;SDS011;21729;58.392;15.656;2022-09-16T13:22:57;0.15;;;0.15;;
35606;SDS011;21729;58.392;15.656;2022-09-16T13:25:31;0.40;;;0.20;;
35606;SDS011;21729;58.392;15.656;2022-09-16T13:28:21;0.50;;;0.20;;
35606;SDS011;21729;58.392;15.656;2022-09-16T13:30:50;0.30;;;0.30;;
35606;SDS011;21729;58.392;15.656;2022-09-16T13:33:22;0.20;;;0.20;;
35606;SDS011;21729;58.392;15.656;2022-09-16T13:36:01;0.85;;;0.30;;
35606;SDS011;21729;58.392;15.656;2022-09-16T13:38:38;0.70;;;0.25;;
35606;SDS011;21729;58.392;15.656;2022-09-16T13:41:08;0.43;;;0.22;;
35606;SDS011;21729;58.392;15.656;2022-09-16T13:43:50;0.60;;;0.15;;
35606;SDS011;21729;58.392;15.656;2022-09-16T13:46:26;0.20;;;0.20;;
35606;SDS011;21729;58.392;15.656;2022-09-16T13:48:57;0.10;;;0.10;;
35606;SDS011;21729;58.392;15.656;2022-09-16T13:51:41;0.60;;;0.10;;
35606;SDS011;21729;58.392;15.656;2022-09-16T13:54:17;0.40;;;0.20;;
35606;SDS011;21729;58.392;15.656;2022-09-16T13:56:50;0.22;;;0.22;;
35606;SDS011;21729;58.392;15.656;2022-09-16T13:59:39;0.40;;;0.30;;
35606;SDS011;21729;58.392;15.656;2022-09-16T14:02:21;0.50;;;0.30;;
35606;SDS011;21729;58.392;15.656;2022-09-16T14:05:16;0.22;;;0.22;;
35606;SDS011;21729;58.392;15.656;2022-09-16T14:07:55;0.20;;;0.20;;
35606;SDS011;21729;58.392;15.656;2022-09-16T14:10:28;0.45;;;0.25;;
35606;SDS011;21729;58.392;15.656;2022-09-16T14:13:02;1.10;;;0.20;;
35606;SDS011;21729;58.392;15.656;2022-09-16T14:15:38;0.73;;;0.23;;
35606;SDS011;21729;58.392;15.656;2022-09-16T14:18:08;0.57;;;0.30;;
35606;SDS011;21729;58.392;15.656;2022-09-16T14:20:48;0.40;;;0.30;;
35606;SDS011;21729;58.392;15.656;2022-09-16T14:23:19;0.57;;;0.30;;
35606;SDS011;21729;58.392;15.656;2022-09-16T14:25:49;0.80;;;0.20;;
35606;SDS011;21729;58.392;15.656;2022-09-16T14:28:17;0.88;;;0.30;;
35606;SDS011;21729;58.392;15.656;2022-09-16T14:30:47;0.70;;;0.20;;
35606;SDS011;21729;58.392;15.656;2022-09-16T14:33:18;0.90;;;0.30;;
35606;SDS011;21729;58.392;15.656;2022-09-16T14:35:48;1.20;;;0.32;;
35606;SDS011;21729;58.392;15.656;2022-09-16T14:38:23;0.70;;;0.40;;
35606;SDS011;21729;58.392;15.656;2022-09-16T14:40:57;1.60;;;0.40;;
35606;SDS011;21729;58.392;15.656;2022-09-16T14:43:24;0.60;;;0.23;;
35606;SDS011;21729;58.392;15.656;2022-09-16T14:45:53;0.73;;;0.47;;
35606;SDS011;21729;58.392;15.656;2022-09-16T14:48:25;0.28;;;0.28;;
35606;SDS011;21729;58.392;15.656;2022-09-16T14:50:55;1.65;;;0.40;;
35606;SDS011;21729;58.392;15.656;2022-09-16T14:53:27;0.40;;;0.30;;
35606;SDS011;21729;58.392;15.656;2022-09-16T14:55:55;0.35;;;0.25;;
35606;SDS011;21729;58.392;15.656;2022-09-16T14:58:24;0.40;;;0.40;;
35606;SDS011;21729;58.392;15.656;2022-09-16T15:00:55;0.65;;;0.50;;
35606;SDS011;21729;58.392;15.656;2022-09-16T15:03:28;1.17;;;0.50;;
35606;SDS011;21729;58.392;15.656;2022-09-16T15:06:03;0.53;;;0.53;;
35606;SDS011;21729;58.392;15.656;2022-09-16T15:08:36;0.73;;;0.50;;
35606;SDS011;21729;58.392;15.656;2022-09-16T15:11:11;0.82;;;0.50;;
35606;SDS011;21729;58.392;15.656;2022-09-16T15:13:42;1.30;;;0.38;;
35606;SDS011;21729;58.392;15.656;2022-09-16T15:16:12;1.60;;;0.40;;
35606;SDS011;21729;58.392;15.656;2022-09-16T15:18:42;0.40;;;0.30;;